Terminal Aerodrome Forecast
Issued by NWS Cleveland, OH

Home | Current Version | Previous Version | Text Only | Print | Product List | Glossary Off
Versions: 1 2 3 4 5 6 7 8 9 10 11 12 13 14 15 16 17 18 19 20

000
FTUS41 KCLE 310300 AAA
TAFMFD
TAF AMD
KMFD 310341Z 3104/3124 23005KT P6SM -SHRA BKN050 OVC080
      WS020/24040KT
     FM310700 20010KT P6SM SCT050 OVC080 WS020/24040KT
      TEMPO 3107/3111 -SHRA BKN050
     FM311100 23012G22KT P6SM BKN080
     FM311400 32012G20KT P6SM BKN035
     FM312200 35007KT P6SM BKN050=

USA.gov is the U.S. government's official web portal to all federal, state and local government web resources and services.